Terminal Aerodrome Forecast
Issued by NWS

Home | Current Version | Previous Version | Text Only | Print | Product List | Glossary On
Versions: 1 2 3 4 5 6 7 8 9 10 11 12 13 14 15 16 17 18
000
FTUS44 KTSA 021700
TAFRVS
TAF
KRVS 021740Z 0218/0318 13008KT P6SM OVC012
     FM030200 17006KT 3SM BR OVC008
     FM031200 19011KT 3SM BR OVC007 PROB30 0312/0318 2SM -DZ BR
      OVC004=

USA.gov is the U.S. government's official web portal to all federal, state and local government web resources and services.